createdAt,value
2017-05-25T08:28:48.844Z,19.83
2017-05-25T08:29:50.500Z,19.78
2017-05-25T08:30:52.441Z,19.88
2017-05-25T08:31:54.332Z,20.03
2017-05-25T08:32:56.273Z,20.06
2017-05-25T08:33:58.302Z,20.15
2017-05-25T08:35:00.331Z,20.43
2017-05-25T08:36:02.122Z,20.38
2017-05-25T08:37:04.052Z,20.27
2017-05-25T08:38:06.289Z,20.41
2017-05-25T08:39:08.129Z,20.50
2017-05-25T08:40:10.092Z,20.51
2017-05-25T08:41:12.062Z,20.71
2017-05-25T08:42:14.001Z,20.69
2017-05-25T08:43:15.954Z,20.76
2017-05-25T08:44:17.964Z,20.87
2017-05-25T08:45:19.996Z,21.05
2017-05-25T08:46:21.845Z,21.09
2017-05-25T08:47:23.846Z,21.23
2017-05-25T08:48:25.701Z,21.34
2017-05-25T08:49:27.677Z,21.42
2017-05-25T08:50:29.681Z,21.45
2017-05-25T08:51:31.744Z,21.60
2017-05-25T08:52:33.576Z,21.67
2017-05-25T08:53:35.772Z,21.64
2017-05-25T08:54:37.599Z,21.69
2017-05-25T08:55:39.746Z,21.75
2017-05-25T08:56:42.009Z,21.75
2017-05-25T08:57:44.226Z,21.75
2017-05-25T08:58:46.067Z,21.78
2017-05-25T08:59:48.018Z,21.78
2017-05-25T09:00:50.181Z,21.82
2017-05-25T09:01:52.316Z,21.90
2017-05-25T09:02:54.200Z,22.10
2017-05-25T09:03:56.222Z,22.04
2017-05-25T09:04:58.245Z,22.02
2017-05-25T09:06:00.299Z,22.14
2017-05-25T09:07:03.585Z,22.14
2017-05-25T09:08:05.733Z,22.20
2017-05-25T09:09:07.705Z,22.25
2017-05-25T09:10:09.797Z,22.39
2017-05-25T09:11:11.975Z,22.47
2017-05-25T09:12:13.906Z,22.41
2017-05-25T09:13:16.051Z,22.53
2017-05-25T09:14:18.023Z,22.64
2017-05-25T09:15:19.987Z,22.64
2017-05-25T09:16:22.121Z,22.65
2017-05-25T09:17:24.308Z,22.82
2017-05-25T09:18:26.777Z,22.77
2017-05-25T09:19:29.026Z,22.64
2017-05-25T09:20:31.313Z,22.69
2017-05-25T09:21:33.188Z,22.78
2017-05-25T09:22:35.351Z,22.77
2017-05-25T09:23:37.363Z,22.94
2017-05-25T09:24:39.426Z,23.01
2017-05-25T09:25:41.579Z,23.15
2017-05-25T09:26:43.655Z,23.09
2017-05-25T09:27:45.791Z,23.17
2017-05-25T09:28:47.803Z,23.22
2017-05-25T09:29:49.848Z,23.27
2017-05-25T09:30:51.998Z,23.39
2017-05-25T09:31:54.201Z,23.52
2017-05-25T09:32:56.110Z,23.46
2017-05-25T09:33:58.145Z,23.62
2017-05-25T09:35:00.024Z,23.58
2017-05-25T09:36:02.052Z,23.65
2017-05-25T09:37:03.893Z,23.67
2017-05-25T09:38:05.973Z,23.71
2017-05-25T09:39:08.190Z,23.53
2017-05-25T09:40:10.517Z,23.52
2017-05-25T09:41:12.553Z,23.52
2017-05-25T09:42:15.004Z,23.57
2017-05-25T09:43:17.495Z,23.50
2017-05-25T09:44:19.566Z,23.71
2017-05-25T09:45:21.682Z,23.68
2017-05-25T09:46:23.897Z,23.71
2017-05-25T09:47:26.153Z,23.72
2017-05-25T09:48:28.430Z,23.83
2017-05-25T09:49:33.359Z,23.87
2017-05-25T09:50:35.305Z,23.86
2017-05-25T09:51:37.304Z,24.01
2017-05-25T09:52:40.516Z,23.98
2017-05-25T09:53:42.803Z,23.98
2017-05-25T10:38:37.493Z,24.45
2017-05-25T10:39:39.261Z,24.44
2017-05-25T10:40:41.071Z,24.49
2017-05-25T10:41:43.288Z,24.57
2017-05-25T10:42:45.803Z,24.71
2017-05-25T10:43:48.174Z,24.80
2017-05-25T10:44:50.305Z,24.91
2017-05-25T10:45:52.315Z,25.05
2017-05-25T10:46:54.550Z,25.10
2017-05-25T10:47:56.459Z,25.00
2017-05-25T10:48:58.468Z,25.31
2017-05-25T10:50:00.434Z,25.19
2017-05-25T10:51:02.563Z,25.17
2017-05-25T10:52:04.512Z,25.35
2017-05-25T10:53:06.764Z,25.34
2017-05-25T10:54:09.048Z,25.46
2017-05-25T10:55:11.289Z,25.49
2017-05-25T10:57:00.758Z,25.53
2017-05-25T10:58:02.499Z,25.57
2017-05-25T10:59:04.525Z,25.42
2017-05-25T11:00:06.462Z,25.43
2017-05-25T11:01:08.789Z,25.57
2017-05-25T11:02:10.609Z,25.59
2017-05-25T11:03:12.535Z,25.56
2017-05-25T11:04:14.671Z,25.54
2017-05-25T11:05:16.807Z,25.59
2017-05-25T11:06:18.729Z,25.64
2017-05-25T11:07:20.610Z,25.61
2017-05-25T11:08:22.568Z,25.46
2017-05-25T11:09:24.439Z,25.47
2017-05-25T11:10:27.490Z,25.42
2017-05-25T11:11:29.388Z,25.46
2017-05-25T11:12:31.558Z,25.32
2017-05-25T11:13:33.810Z,25.43
2017-05-25T11:14:35.571Z,25.54
2017-05-25T11:15:37.968Z,25.69
2017-05-25T11:16:40.208Z,25.71
2017-05-25T11:17:42.446Z,25.71
2017-05-25T11:18:44.493Z,25.82
2017-05-25T11:19:46.385Z,25.74
2017-05-25T11:20:48.548Z,25.69
2017-05-25T11:21:50.489Z,25.69
2017-05-25T11:22:53.579Z,25.69
2017-05-25T11:23:55.838Z,25.72
2017-05-25T11:24:58.066Z,25.72
2017-05-25T11:25:59.989Z,25.64
2017-05-25T11:27:01.749Z,25.64
2017-05-25T11:28:03.939Z,25.56
2017-05-25T11:29:06.112Z,25.43
2017-05-25T11:30:08.168Z,25.20
2017-05-25T11:31:10.111Z,25.17
2017-05-25T11:32:12.146Z,25.37
2017-05-25T11:33:14.201Z,25.32
2017-05-25T11:34:16.078Z,25.53
2017-05-25T11:35:17.927Z,25.68
2017-05-25T11:36:19.879Z,25.69
2017-05-25T11:37:21.902Z,25.72
2017-05-25T11:38:24.282Z,25.89
2017-05-25T11:39:26.070Z,25.86
2017-05-25T11:40:28.477Z,26.01
2017-05-25T11:41:30.415Z,25.93
2017-05-25T11:42:32.606Z,25.90
2017-05-25T11:43:34.952Z,25.93
2017-05-25T11:44:36.844Z,25.98
2017-05-25T11:45:38.918Z,25.94
2017-05-25T11:46:41.127Z,25.80
2017-05-25T11:47:42.947Z,25.87
2017-05-25T11:48:44.786Z,25.71
2017-05-25T11:49:46.885Z,25.82
2017-05-25T11:50:48.984Z,25.82
2017-05-25T11:51:50.902Z,25.82
2017-05-25T11:52:53.037Z,25.90
2017-05-25T11:53:54.917Z,25.94
2017-05-25T11:54:56.945Z,26.17
2017-05-25T11:55:58.849Z,26.09
2017-05-25T11:57:01.251Z,26.12
2017-05-25T11:58:03.195Z,26.17
2017-05-25T11:59:05.446Z,26.09
2017-05-25T12:00:07.407Z,25.97
2017-05-25T12:01:09.375Z,26.01
2017-05-25T12:02:11.369Z,26.01
2017-05-25T12:03:13.246Z,26.02
2017-05-25T12:04:15.672Z,26.02
2017-05-25T12:05:17.426Z,26.04
2017-05-25T12:06:19.219Z,26.01
2017-05-25T12:07:20.986Z,25.86
2017-05-25T12:08:22.875Z,25.90
2017-05-25T12:09:24.801Z,26.01
2017-05-25T12:10:26.670Z,25.97
2017-05-25T12:11:28.783Z,25.99
2017-05-25T12:12:30.555Z,26.02
2017-05-25T12:13:32.469Z,26.15
2017-05-25T12:14:34.305Z,26.12
2017-05-25T12:15:36.219Z,25.56
2017-05-25T12:16:38.029Z,25.62
2017-05-25T12:17:39.881Z,25.69
2017-05-25T12:18:42.003Z,25.72
2017-05-25T12:19:44.133Z,25.74
2017-05-25T12:20:45.997Z,25.82
2017-05-25T12:21:47.793Z,25.86
2017-05-25T12:22:49.573Z,25.94
2017-05-25T12:23:51.451Z,25.98
2017-05-25T12:24:53.337Z,25.99
2017-05-25T12:25:55.464Z,26.09
2017-05-25T12:26:57.231Z,26.15
2017-05-25T12:27:59.080Z,26.20
2017-05-25T12:29:01.098Z,26.06
2017-05-25T12:30:02.845Z,26.09
2017-05-25T12:31:04.897Z,26.11
2017-05-25T12:32:06.679Z,26.24
2017-05-25T12:33:08.521Z,26.25
2017-05-25T12:34:10.573Z,26.20
2017-05-25T12:35:12.315Z,26.32
2017-05-25T12:36:13.992Z,26.40
2017-05-25T12:37:15.795Z,26.28
2017-05-25T12:38:17.572Z,26.46
2017-05-25T12:39:19.417Z,26.39
2017-05-25T12:40:21.528Z,26.29
2017-05-25T12:41:23.349Z,26.32
2017-05-25T12:42:25.473Z,26.42
2017-05-25T12:43:27.271Z,26.32
2017-05-25T12:44:29.016Z,26.29
2017-05-25T12:45:30.995Z,26.25
2017-05-25T12:46:33.020Z,26.37
2017-05-25T12:47:34.863Z,26.50
2017-05-25T12:48:36.680Z,26.46
2017-05-25T12:49:38.613Z,26.42
2017-05-25T12:50:40.486Z,26.47
2017-05-25T12:51:42.312Z,26.43
2017-05-25T12:52:44.278Z,26.18
2017-05-25T12:53:46.191Z,26.04
2017-05-25T12:54:48.267Z,25.98
2017-05-25T12:55:50.289Z,25.97
2017-05-25T12:56:52.290Z,25.99
2017-05-25T12:57:54.536Z,25.98
2017-05-25T12:58:56.693Z,26.05
2017-05-25T12:59:58.693Z,26.28
2017-05-25T13:01:00.555Z,26.29
2017-05-25T13:02:02.320Z,26.29
2017-05-25T13:03:04.167Z,26.25
2017-05-25T13:04:05.953Z,26.20
2017-05-25T13:05:07.787Z,26.05
2017-05-25T13:06:09.786Z,25.94
2017-05-25T13:07:11.522Z,25.91
2017-05-25T13:08:13.694Z,25.89
2017-05-25T13:09:15.842Z,25.99
2017-05-25T13:10:18.085Z,25.97
2017-05-25T13:11:19.916Z,26.20
2017-05-25T13:12:21.814Z,26.18
2017-05-25T13:13:23.514Z,26.18
2017-05-25T13:14:25.242Z,26.25
2017-05-25T13:15:27.143Z,26.21
2017-05-25T13:16:29.009Z,26.20
2017-05-25T13:17:31.021Z,26.15
2017-05-25T13:18:33.240Z,26.17
2017-05-25T13:19:35.045Z,26.20
2017-05-25T13:20:36.867Z,26.31
2017-05-25T13:21:38.618Z,26.43
2017-05-25T13:22:40.411Z,26.36
2017-05-25T13:23:42.169Z,26.46
2017-05-25T13:24:44.117Z,26.59
2017-05-25T13:25:45.867Z,26.61
2017-05-25T13:26:47.805Z,26.47
2017-05-25T13:27:49.606Z,26.40
2017-05-25T13:28:51.784Z,26.52
2017-05-25T13:29:53.639Z,26.46
2017-05-25T13:30:55.469Z,26.49
2017-05-25T13:31:57.342Z,26.57
2017-05-25T13:32:59.483Z,26.50
2017-05-25T13:34:01.651Z,26.28
2017-05-25T13:35:03.512Z,26.28
2017-05-25T13:36:05.381Z,26.24
2017-05-25T13:37:07.286Z,26.28
2017-05-25T13:38:09.021Z,26.27
2017-05-25T13:39:10.821Z,26.27
2017-05-25T13:40:12.673Z,26.29
2017-05-25T13:41:14.940Z,26.24
2017-05-25T13:42:16.617Z,26.17
2017-05-25T13:43:18.570Z,26.11
2017-05-25T13:44:20.449Z,26.02
2017-05-25T13:45:22.528Z,26.01
2017-05-25T13:46:24.386Z,26.21
2017-05-25T13:47:26.299Z,26.35
2017-05-25T13:48:28.133Z,26.39
2017-05-25T13:49:29.902Z,26.54
2017-05-25T13:50:31.930Z,26.46
2017-05-25T13:51:33.631Z,26.46
2017-05-25T13:52:35.576Z,26.25
2017-05-25T13:53:37.720Z,26.09
2017-05-25T13:54:39.508Z,26.06
2017-05-25T13:55:41.281Z,25.99
2017-05-25T13:56:43.188Z,25.93
2017-05-25T13:57:45.221Z,25.93
2017-05-25T13:58:47.322Z,25.82
2017-05-25T13:59:49.488Z,25.69
2017-05-25T14:00:51.268Z,25.59
2017-05-25T14:01:53.136Z,25.59
2017-05-25T14:02:54.955Z,25.62
2017-05-25T14:03:56.691Z,25.69
2017-05-25T14:04:58.552Z,25.75
2017-05-25T14:06:00.517Z,25.83
2017-05-25T14:07:02.377Z,25.68
2017-05-25T14:08:04.384Z,25.69
2017-05-25T14:09:06.592Z,25.82
2017-05-25T14:10:08.396Z,25.97
2017-05-25T14:11:10.255Z,25.79
2017-05-25T14:12:12.544Z,25.82
2017-05-25T14:13:14.234Z,25.94
2017-05-25T14:14:15.988Z,25.91
2017-05-25T14:15:17.826Z,25.80
2017-05-25T14:16:19.635Z,25.91
2017-05-25T14:17:21.478Z,25.97
2017-05-25T14:18:23.264Z,26.01
2017-05-25T14:19:25.331Z,26.01
2017-05-25T14:20:27.181Z,26.01
2017-05-25T14:21:29.112Z,26.05
2017-05-25T14:22:30.887Z,26.02
2017-05-25T14:23:32.696Z,25.97
2017-05-25T14:24:34.524Z,25.97
2017-05-25T14:25:36.614Z,25.87
2017-05-25T14:26:39.107Z,25.84
2017-05-25T14:27:41.004Z,25.75
2017-05-25T14:28:42.790Z,25.65
2017-05-25T14:29:44.940Z,25.65
2017-05-25T14:30:47.123Z,25.57
2017-05-25T14:31:49.234Z,25.54
2017-05-25T14:32:50.993Z,25.44
2017-05-25T14:33:52.784Z,25.37
2017-05-25T14:34:54.625Z,25.19
2017-05-25T14:35:56.538Z,25.20
2017-05-25T14:36:58.682Z,25.27
2017-05-25T14:38:00.805Z,25.22
2017-05-25T14:39:02.930Z,25.15
2017-05-25T14:40:04.686Z,25.13
2017-05-25T14:41:06.552Z,25.06
2017-05-25T14:42:08.323Z,25.17
2017-05-25T14:43:10.398Z,25.28
2017-05-25T14:44:12.584Z,25.30
2017-05-25T14:45:14.540Z,25.43
2017-05-25T14:46:16.336Z,25.53
2017-05-25T14:47:18.142Z,25.68
2017-05-25T14:48:20.074Z,25.79
2017-05-25T14:49:22.195Z,25.74
2017-05-25T14:50:23.879Z,25.83
2017-05-25T14:51:26.047Z,25.68
2017-05-25T14:52:28.004Z,25.62
2017-05-25T14:53:29.928Z,25.64
2017-05-25T14:54:31.791Z,25.71
2017-05-25T14:55:33.529Z,25.69
2017-05-25T14:56:35.670Z,25.65
2017-05-25T14:57:37.481Z,25.61
2017-05-25T14:58:39.642Z,25.67
2017-05-25T14:59:41.583Z,25.62
2017-05-25T15:00:43.455Z,25.54
2017-05-25T15:01:45.316Z,25.31
2017-05-25T15:02:47.132Z,25.31
2017-05-25T15:03:49.215Z,25.32
2017-05-25T15:04:51.079Z,25.44
2017-05-25T15:05:52.823Z,25.46
2017-05-25T15:06:54.724Z,25.43
2017-05-25T15:07:56.525Z,25.31
2017-05-25T15:49:02.166Z,22.38
2017-05-25T15:50:06.236Z,22.52
2017-05-25T16:16:25.576Z,24.59
2017-05-25T16:17:27.486Z,24.44
2017-05-25T16:18:29.422Z,24.37
2017-05-25T16:19:31.687Z,24.37
2017-05-25T16:20:33.643Z,24.32
2017-05-25T16:21:35.484Z,24.27
2017-05-25T16:22:38.069Z,24.31
2017-05-25T16:23:39.790Z,24.23
2017-05-25T16:24:41.598Z,24.14
2017-05-25T16:25:43.848Z,24.14
2017-05-25T16:26:45.960Z,24.19
2017-05-25T16:28:35.028Z,24.23
2017-05-25T16:29:37.182Z,24.22
2017-05-25T16:30:39.330Z,24.20
2017-05-25T16:31:41.859Z,24.23
2017-05-25T16:32:43.826Z,24.31
2017-05-25T16:34:29.901Z,24.37
2017-05-25T16:35:31.337Z,24.34
2017-05-25T16:36:33.218Z,24.38
2017-05-25T16:37:35.082Z,24.45
2017-05-25T16:38:37.406Z,24.42
2017-05-25T16:39:39.814Z,24.49
2017-05-25T16:40:41.993Z,24.56
2017-05-25T20:19:21.328Z,21.06
2017-05-25T20:20:23.550Z,20.93
2017-05-25T20:21:25.858Z,20.91
2017-05-25T20:23:10.727Z,20.91
2017-05-25T20:24:13.956Z,20.89
2017-05-25T20:25:15.890Z,20.80
2017-05-25T20:26:18.864Z,20.76
2017-05-25T20:27:20.855Z,20.74
2017-05-25T20:28:23.384Z,20.77
2017-05-25T20:29:25.176Z,20.76
2017-05-25T20:30:26.948Z,20.77
2017-05-25T20:31:29.067Z,20.76
2017-05-25T20:32:31.476Z,20.74
2017-05-25T20:33:33.504Z,20.71
2017-05-25T20:34:35.659Z,20.71
2017-05-25T20:35:37.580Z,20.71
2017-05-25T20:36:39.538Z,20.68
2017-05-25T20:37:41.701Z,20.69
2017-05-25T20:38:43.712Z,20.68
2017-05-25T20:39:46.462Z,20.64
2017-05-25T20:40:48.609Z,20.69
2017-05-25T20:41:51.330Z,20.68
2017-05-25T20:42:53.732Z,20.69
2017-05-25T20:43:55.636Z,20.69
2017-05-25T20:44:57.472Z,20.68
2017-05-25T20:45:59.476Z,20.71
2017-05-25T20:47:01.645Z,20.62
2017-05-25T20:48:03.572Z,20.62
2017-05-25T20:50:57.826Z,20.68
2017-05-25T20:51:59.855Z,20.62
2017-05-25T20:53:03.386Z,20.50
2017-05-25T20:54:05.303Z,20.71
2017-05-25T20:55:07.068Z,20.72
2017-05-25T20:56:09.529Z,20.62
2017-05-25T20:57:11.453Z,20.61
2017-05-25T20:58:14.073Z,20.51
2017-05-25T20:59:15.990Z,20.51
2017-05-25T21:00:18.010Z,20.50
2017-05-25T21:01:19.903Z,20.62
2017-05-25T21:02:22.477Z,20.53
2017-05-25T21:03:24.596Z,20.53
2017-05-25T21:04:26.913Z,20.47
2017-05-25T21:05:29.416Z,20.42
2017-05-25T21:06:31.289Z,20.54
2017-05-25T21:07:33.149Z,20.43
2017-05-25T21:08:34.978Z,20.43
